sensor_id;sensor_type;location;lat;lon;timestamp;pressure;altitude;pressure_sealevel;temperature;humidity
58757;BME280;44527;47.460;19.016;2024-03-02T00:01:10;99701.09;;;10.07;100.00
58757;BME280;44527;47.460;19.016;2024-03-02T00:04:13;99704.59;;;10.07;100.00
58757;BME280;44527;47.460;19.016;2024-03-02T00:07:15;99701.84;;;10.09;100.00
58757;BME280;44527;47.460;19.016;2024-03-02T00:10:26;99692.53;;;10.05;100.00
58757;BME280;44527;47.460;19.016;2024-03-02T00:13:33;99682.28;;;10.02;100.00
58757;BME280;44527;47.460;19.016;2024-03-02T00:16:37;99677.44;;;9.84;100.00
58757;BME280;44527;47.460;19.016;2024-03-02T00:19:39;99676.03;;;9.92;100.00
58757;BME280;44527;47.460;19.016;2024-03-02T00:22:42;99679.38;;;9.94;100.00
58757;BME280;44527;47.460;19.016;2024-03-02T00:25:47;99675.53;;;9.86;100.00
58757;BME280;44527;47.460;19.016;2024-03-02T00:28:54;99672.87;;;9.75;100.00
58757;BME280;44527;47.460;19.016;2024-03-02T00:32:01;99670.63;;;9.82;100.00
58757;BME280;44527;47.460;19.016;2024-03-02T00:35:05;99671.13;;;9.87;100.00
58757;BME280;44527;47.460;19.016;2024-03-02T00:38:07;99674.81;;;9.84;100.00
58757;BME280;44527;47.460;19.016;2024-03-02T00:41:16;99684.38;;;9.97;100.00
58757;BME280;44527;47.460;19.016;2024-03-02T00:44:20;99680.87;;;9.85;100.00
58757;BME280;44527;47.460;19.016;2024-03-02T00:47:26;99679.97;;;9.86;100.00
58757;BME280;44527;47.460;19.016;2024-03-02T00:50:29;99684.34;;;9.85;100.00
58757;BME280;44527;47.460;19.016;2024-03-02T00:53:33;99684.47;;;9.84;100.00
58757;BME280;44527;47.460;19.016;2024-03-02T00:56:36;99688.91;;;9.95;100.00
58757;BME280;44527;47.460;19.016;2024-03-02T00:59:39;99697.34;;;9.87;100.00
58757;BME280;44527;47.460;19.016;2024-03-02T01:02:42;99686.13;;;9.85;100.00
58757;BME280;44527;47.460;19.016;2024-03-02T01:05:47;99683.88;;;9.92;100.00
58757;BME280;44527;47.460;19.016;2024-03-02T01:08:50;99679.97;;;9.97;100.00
58757;BME280;44527;47.460;19.016;2024-03-02T01:11:55;99691.19;;;9.99;100.00
58757;BME280;44527;47.460;19.016;2024-03-02T01:14:58;99688.22;;;10.04;100.00
58757;BME280;44527;47.460;19.016;2024-03-02T01:18:01;99682.59;;;9.97;100.00
58757;BME280;44527;47.460;19.016;2024-03-02T01:21:04;99686.19;;;9.96;100.00
58757;BME280;44527;47.460;19.016;2024-03-02T01:24:07;99675.78;;;9.95;100.00
58757;BME280;44527;47.460;19.016;2024-03-02T01:27:10;99672.84;;;9.99;100.00
58757;BME280;44527;47.460;19.016;2024-03-02T01:30:13;99668.78;;;9.95;100.00
58757;BME280;44527;47.460;19.016;2024-03-02T01:33:19;99667.84;;;9.96;100.00
58757;BME280;44527;47.460;19.016;2024-03-02T01:36:23;99647.41;;;9.88;100.00
58757;BME280;44527;47.460;19.016;2024-03-02T01:39:26;99647.19;;;9.92;100.00
58757;BME280;44527;47.460;19.016;2024-03-02T01:42:29;99639.81;;;9.97;100.00
58757;BME280;44527;47.460;19.016;2024-03-02T01:45:33;99642.44;;;9.97;100.00
58757;BME280;44527;47.460;19.016;2024-03-02T01:48:38;99639.22;;;9.93;100.00
58757;BME280;44527;47.460;19.016;2024-03-02T01:51:41;99628.00;;;9.91;100.00
58757;BME280;44527;47.460;19.016;2024-03-02T01:54:44;99631.38;;;9.93;100.00
58757;BME280;44527;47.460;19.016;2024-03-02T01:57:48;99642.56;;;9.95;100.00
58757;BME280;44527;47.460;19.016;2024-03-02T02:00:53;99645.91;;;9.97;100.00
58757;BME280;44527;47.460;19.016;2024-03-02T02:03:57;99642.31;;;9.87;100.00
58757;BME280;44527;47.460;19.016;2024-03-02T02:07:00;99645.03;;;9.85;100.00
58757;BME280;44527;47.460;19.016;2024-03-02T02:10:03;99648.16;;;9.90;100.00
58757;BME280;44527;47.460;19.016;2024-03-02T02:13:06;99660.94;;;9.95;100.00
58757;BME280;44527;47.460;19.016;2024-03-02T02:16:11;99663.03;;;9.90;100.00
58757;BME280;44527;47.460;19.016;2024-03-02T02:19:14;99660.78;;;9.97;100.00
58757;BME280;44527;47.460;19.016;2024-03-02T02:22:17;99668.38;;;9.88;100.00
58757;BME280;44527;47.460;19.016;2024-03-02T02:25:20;99665.87;;;9.87;100.00
58757;BME280;44527;47.460;19.016;2024-03-02T02:28:23;99674.81;;;9.84;100.00
58757;BME280;44527;47.460;19.016;2024-03-02T02:31:26;99669.69;;;9.83;100.00
58757;BME280;44527;47.460;19.016;2024-03-02T02:34:30;99676.47;;;9.85;100.00
58757;BME280;44527;47.460;19.016;2024-03-02T02:37:33;99679.81;;;9.87;100.00
58757;BME280;44527;47.460;19.016;2024-03-02T02:40:36;99687.16;;;9.71;100.00
58757;BME280;44527;47.460;19.016;2024-03-02T02:43:38;99675.19;;;9.67;100.00
58757;BME280;44527;47.460;19.016;2024-03-02T02:46:43;99674.66;;;9.75;100.00
58757;BME280;44527;47.460;19.016;2024-03-02T02:49:45;99675.78;;;9.95;100.00
58757;BME280;44527;47.460;19.016;2024-03-02T02:52:49;99662.53;;;9.85;100.00
58757;BME280;44527;47.460;19.016;2024-03-02T02:55:53;99662.28;;;9.77;100.00
58757;BME280;44527;47.460;19.016;2024-03-02T02:58:56;99669.56;;;9.84;100.00
58757;BME280;44527;47.460;19.016;2024-03-02T03:01:59;99662.75;;;9.82;100.00
58757;BME280;44527;47.460;19.016;2024-03-02T03:05:02;99662.44;;;9.86;100.00
58757;BME280;44527;47.460;19.016;2024-03-02T03:08:05;99664.91;;;9.77;100.00
58757;BME280;44527;47.460;19.016;2024-03-02T03:11:08;99669.47;;;9.86;100.00
58757;BME280;44527;47.460;19.016;2024-03-02T03:14:11;99677.94;;;9.89;100.00
58757;BME280;44527;47.460;19.016;2024-03-02T03:17:15;99687.38;;;10.03;100.00
58757;BME280;44527;47.460;19.016;2024-03-02T03:20:18;99689.09;;;10.04;100.00
58757;BME280;44527;47.460;19.016;2024-03-02T03:23:21;99685.34;;;9.96;100.00
58757;BME280;44527;47.460;19.016;2024-03-02T03:26:24;99679.81;;;9.87;100.00
58757;BME280;44527;47.460;19.016;2024-03-02T03:29:27;99675.78;;;9.83;100.00
58757;BME280;44527;47.460;19.016;2024-03-02T03:32:30;99675.03;;;9.81;100.00
58757;BME280;44527;47.460;19.016;2024-03-02T03:35:34;99669.06;;;9.79;100.00
58757;BME280;44527;47.460;19.016;2024-03-02T03:38:37;99670.16;;;9.88;100.00
58757;BME280;44527;47.460;19.016;2024-03-02T03:41:41;99669.94;;;9.91;100.00
58757;BME280;44527;47.460;19.016;2024-03-02T03:44:44;99674.41;;;10.02;100.00
58757;BME280;44527;47.460;19.016;2024-03-02T03:47:49;99681.44;;;10.01;100.00
58757;BME280;44527;47.460;19.016;2024-03-02T03:50:52;99695.63;;;10.10;100.00
58757;BME280;44527;47.460;19.016;2024-03-02T03:53:56;99686.06;;;9.98;100.00
58757;BME280;44527;47.460;19.016;2024-03-02T03:57:02;99690.69;;;9.94;100.00
58757;BME280;44527;47.460;19.016;2024-03-02T04:00:08;99686.69;;;10.01;100.00
58757;BME280;44527;47.460;19.016;2024-03-02T04:03:14;99702.44;;;10.12;100.00
58757;BME280;44527;47.460;19.016;2024-03-02T04:06:17;99702.19;;;10.04;100.00
58757;BME280;44527;47.460;19.016;2024-03-02T04:09:21;99698.09;;;10.00;100.00
58757;BME280;44527;47.460;19.016;2024-03-02T04:12:24;99705.25;;;9.98;100.00
58757;BME280;44527;47.460;19.016;2024-03-02T04:15:27;99710.22;;;9.90;100.00
58757;BME280;44527;47.460;19.016;2024-03-02T04:18:31;99709.50;;;9.88;100.00
58757;BME280;44527;47.460;19.016;2024-03-02T04:21:35;99722.34;;;9.80;100.00
58757;BME280;44527;47.460;19.016;2024-03-02T04:24:39;99715.91;;;9.60;100.00
58757;BME280;44527;47.460;19.016;2024-03-02T04:27:42;99716.50;;;9.63;100.00
58757;BME280;44527;47.460;19.016;2024-03-02T04:30:46;99718.31;;;9.63;100.00
58757;BME280;44527;47.460;19.016;2024-03-02T04:33:50;99709.31;;;9.54;100.00
58757;BME280;44527;47.460;19.016;2024-03-02T04:36:55;99719.41;;;9.48;100.00
58757;BME280;44527;47.460;19.016;2024-03-02T04:40:01;99712.72;;;9.43;100.00
58757;BME280;44527;47.460;19.016;2024-03-02T04:43:14;99715.22;;;9.45;100.00
58757;BME280;44527;47.460;19.016;2024-03-02T04:46:22;99705.88;;;9.54;100.00
58757;BME280;44527;47.460;19.016;2024-03-02T04:49:26;99717.00;;;9.44;100.00
58757;BME280;44527;47.460;19.016;2024-03-02T04:52:31;99724.41;;;9.51;100.00
58757;BME280;44527;47.460;19.016;2024-03-02T04:55:35;99722.47;;;9.41;100.00
58757;BME280;44527;47.460;19.016;2024-03-02T04:58:52;99722.38;;;9.30;100.00
58757;BME280;44527;47.460;19.016;2024-03-02T05:01:58;99721.13;;;9.23;100.00
58757;BME280;44527;47.460;19.016;2024-03-02T05:05:13;99713.19;;;9.25;100.00
58757;BME280;44527;47.460;19.016;2024-03-02T05:08:19;99715.91;;;9.23;100.00
58757;BME280;44527;47.460;19.016;2024-03-02T05:11:31;99711.28;;;9.27;100.00
58757;BME280;44527;47.460;19.016;2024-03-02T05:14:45;99717.03;;;9.32;100.00
58757;BME280;44527;47.460;19.016;2024-03-02T05:18:00;99721.22;;;9.34;100.00
58757;BME280;44527;47.460;19.016;2024-03-02T05:21:14;99726.28;;;9.25;100.00
58757;BME280;44527;47.460;19.016;2024-03-02T05:24:23;99723.09;;;9.32;100.00
58757;BME280;44527;47.460;19.016;2024-03-02T05:27:32;99719.87;;;9.29;100.00
58757;BME280;44527;47.460;19.016;2024-03-02T05:30:39;99727.59;;;9.30;100.00
58757;BME280;44527;47.460;19.016;2024-03-02T05:33:43;99732.22;;;9.27;100.00
58757;BME280;44527;47.460;19.016;2024-03-02T05:36:47;99727.63;;;9.17;100.00
58757;BME280;44527;47.460;19.016;2024-03-02T05:39:51;99714.88;;;9.13;100.00
58757;BME280;44527;47.460;19.016;2024-03-02T05:42:56;99714.75;;;9.14;100.00
58757;BME280;44527;47.460;19.016;2024-03-02T05:46:00;99712.75;;;9.18;100.00
58757;BME280;44527;47.460;19.016;2024-03-02T05:49:07;99717.25;;;9.29;100.00
58757;BME280;44527;47.460;19.016;2024-03-02T05:52:10;99725.91;;;9.42;100.00
58757;BME280;44527;47.460;19.016;2024-03-02T05:55:15;99738.19;;;9.41;100.00
58757;BME280;44527;47.460;19.016;2024-03-02T05:58:23;99744.06;;;9.32;100.00
58757;BME280;44527;47.460;19.016;2024-03-02T06:01:47;99740.41;;;9.22;100.00
58757;BME280;44527;47.460;19.016;2024-03-02T06:04:56;99746.69;;;9.32;100.00
58757;BME280;44527;47.460;19.016;2024-03-02T06:08:00;99751.31;;;9.29;100.00
58757;BME280;44527;47.460;19.016;2024-03-02T06:11:05;99760.94;;;9.28;100.00
58757;BME280;44527;47.460;19.016;2024-03-02T06:14:08;99753.59;;;9.33;100.00
58757;BME280;44527;47.460;19.016;2024-03-02T06:17:12;99762.91;;;9.37;100.00
58757;BME280;44527;47.460;19.016;2024-03-02T06:20:18;99772.34;;;9.27;100.00
58757;BME280;44527;47.460;19.016;2024-03-02T06:23:22;99761.88;;;9.27;100.00
58757;BME280;44527;47.460;19.016;2024-03-02T06:26:28;99759.56;;;9.35;100.00
58757;BME280;44527;47.460;19.016;2024-03-02T06:29:35;99762.47;;;9.43;100.00
58757;BME280;44527;47.460;19.016;2024-03-02T06:32:39;99758.88;;;9.57;100.00
58757;BME280;44527;47.460;19.016;2024-03-02T06:35:43;99767.56;;;9.58;100.00
58757;BME280;44527;47.460;19.016;2024-03-02T06:38:48;99766.28;;;9.63;100.00
58757;BME280;44527;47.460;19.016;2024-03-02T06:41:52;99775.00;;;9.64;100.00
58757;BME280;44527;47.460;19.016;2024-03-02T06:44:56;99767.78;;;9.55;100.00
58757;BME280;44527;47.460;19.016;2024-03-02T06:48:03;99771.87;;;9.59;100.00
58757;BME280;44527;47.460;19.016;2024-03-02T06:51:07;99767.47;;;9.59;100.00
58757;BME280;44527;47.460;19.016;2024-03-02T06:54:16;99768.31;;;9.60;100.00
58757;BME280;44527;47.460;19.016;2024-03-02T06:57:20;99775.34;;;9.59;100.00
58757;BME280;44527;47.460;19.016;2024-03-02T07:00:25;99768.91;;;9.63;100.00
58757;BME280;44527;47.460;19.016;2024-03-02T07:03:32;99772.87;;;9.69;100.00
58757;BME280;44527;47.460;19.016;2024-03-02T07:06:41;99774.69;;;9.69;100.00
58757;BME280;44527;47.460;19.016;2024-03-02T07:09:49;99772.44;;;9.75;100.00
58757;BME280;44527;47.460;19.016;2024-03-02T07:12:58;99771.06;;;9.82;100.00
58757;BME280;44527;47.460;19.016;2024-03-02T07:16:04;99775.69;;;9.79;100.00
58757;BME280;44527;47.460;19.016;2024-03-02T07:19:31;99773.56;;;9.84;100.00
58757;BME280;44527;47.460;19.016;2024-03-02T07:22:45;99776.72;;;9.89;100.00
58757;BME280;44527;47.460;19.016;2024-03-02T07:25:55;99784.16;;;9.82;100.00
58757;BME280;44527;47.460;19.016;2024-03-02T07:29:03;99780.87;;;9.92;100.00
58757;BME280;44527;47.460;19.016;2024-03-02T07:32:09;99774.41;;;9.84;100.00
58757;BME280;44527;47.460;19.016;2024-03-02T07:35:15;99786.06;;;9.80;100.00
58757;BME280;44527;47.460;19.016;2024-03-02T07:38:19;99784.72;;;9.75;100.00
58757;BME280;44527;47.460;19.016;2024-03-02T07:41:23;99783.59;;;9.66;100.00
58757;BME280;44527;47.460;19.016;2024-03-02T07:44:27;99785.03;;;9.70;100.00
58757;BME280;44527;47.460;19.016;2024-03-02T07:47:31;99797.59;;;9.78;100.00
58757;BME280;44527;47.460;19.016;2024-03-02T07:50:37;99788.78;;;9.79;100.00
58757;BME280;44527;47.460;19.016;2024-03-02T07:53:41;99788.03;;;9.89;100.00
58757;BME280;44527;47.460;19.016;2024-03-02T07:56:46;99797.47;;;9.92;100.00
58757;BME280;44527;47.460;19.016;2024-03-02T07:59:51;99794.72;;;9.94;100.00
58757;BME280;44527;47.460;19.016;2024-03-02T08:02:56;99801.19;;;10.01;100.00
58757;BME280;44527;47.460;19.016;2024-03-02T08:06:01;99805.41;;;9.90;100.00
58757;BME280;44527;47.460;19.016;2024-03-02T08:09:05;99807.44;;;9.87;100.00
58757;BME280;44527;47.460;19.016;2024-03-02T08:12:15;99808.25;;;9.87;100.00
58757;BME280;44527;47.460;19.016;2024-03-02T08:15:22;99802.50;;;9.82;100.00
58757;BME280;44527;47.460;19.016;2024-03-02T08:18:30;99809.00;;;9.89;100.00
58757;BME280;44527;47.460;19.016;2024-03-02T08:21:34;99805.19;;;9.94;100.00
58757;BME280;44527;47.460;19.016;2024-03-02T08:24:49;99806.78;;;9.96;100.00
58757;BME280;44527;47.460;19.016;2024-03-02T08:28:01;99804.75;;;10.00;100.00
58757;BME280;44527;47.460;19.016;2024-03-02T08:31:14;99808.59;;;10.07;100.00
58757;BME280;44527;47.460;19.016;2024-03-02T08:34:23;99805.81;;;9.97;100.00
58757;BME280;44527;47.460;19.016;2024-03-02T08:37:33;99806.03;;;9.94;100.00
58757;BME280;44527;47.460;19.016;2024-03-02T08:40:44;99805.47;;;9.78;100.00
58757;BME280;44527;47.460;19.016;2024-03-02T08:43:50;99805.56;;;9.76;100.00
58757;BME280;44527;47.460;19.016;2024-03-02T08:46:58;99807.22;;;9.90;100.00
58757;BME280;44527;47.460;19.016;2024-03-02T08:50:26;99809.50;;;9.95;100.00
58757;BME280;44527;47.460;19.016;2024-03-02T08:53:33;99807.44;;;9.87;100.00
58757;BME280;44527;47.460;19.016;2024-03-02T08:56:53;99812.97;;;9.95;100.00
58757;BME280;44527;47.460;19.016;2024-03-02T09:00:06;99806.44;;;10.01;100.00
58757;BME280;44527;47.460;19.016;2024-03-02T09:03:58;99803.94;;;9.99;100.00
58757;BME280;44527;47.460;19.016;2024-03-02T09:07:09;99801.59;;;10.07;100.00
58757;BME280;44527;47.460;19.016;2024-03-02T09:10:24;99806.84;;;10.07;100.00
58757;BME280;44527;47.460;19.016;2024-03-02T09:13:46;99809.13;;;10.12;100.00
58757;BME280;44527;47.460;19.016;2024-03-02T09:17:11;99806.94;;;10.06;100.00
58757;BME280;44527;47.460;19.016;2024-03-02T09:20:26;99809.47;;;10.07;100.00
58757;BME280;44527;47.460;19.016;2024-03-02T09:23:46;99810.56;;;9.92;100.00
58757;BME280;44527;47.460;19.016;2024-03-02T09:27:06;99812.31;;;10.04;100.00
58757;BME280;44527;47.460;19.016;2024-03-02T09:30:13;99813.84;;;10.07;100.00
58757;BME280;44527;47.460;19.016;2024-03-02T09:33:51;99818.56;;;10.15;100.00
58757;BME280;44527;47.460;19.016;2024-03-02T09:37:15;99824.56;;;10.04;100.00
58757;BME280;44527;47.460;19.016;2024-03-02T09:40:38;99824.47;;;10.05;100.00
58757;BME280;44527;47.460;19.016;2024-03-02T09:43:46;99823.41;;;10.08;100.00
58757;BME280;44527;47.460;19.016;2024-03-02T09:47:21;99814.81;;;10.06;100.00
58757;BME280;44527;47.460;19.016;2024-03-02T09:50:35;99814.56;;;9.85;100.00
58757;BME280;44527;47.460;19.016;2024-03-02T09:53:55;99816.19;;;9.99;100.00
58757;BME280;44527;47.460;19.016;2024-03-02T09:57:22;99813.75;;;10.08;100.00
58757;BME280;44527;47.460;19.016;2024-03-02T10:00:49;99819.81;;;10.09;100.00
58757;BME280;44527;47.460;19.016;2024-03-02T10:04:17;99810.34;;;10.19;100.00
58757;BME280;44527;47.460;19.016;2024-03-02T10:07:34;99818.91;;;10.34;100.00
58757;BME280;44527;47.460;19.016;2024-03-02T10:11:06;99816.84;;;10.26;100.00
58757;BME280;44527;47.460;19.016;2024-03-02T10:14:39;99816.88;;;10.38;100.00
58757;BME280;44527;47.460;19.016;2024-03-02T10:17:49;99816.06;;;10.37;100.00
58757;BME280;44527;47.460;19.016;2024-03-02T10:21:16;99812.84;;;10.21;100.00
58757;BME280;44527;47.460;19.016;2024-03-02T10:24:44;99810.34;;;10.19;100.00
58757;BME280;44527;47.460;19.016;2024-03-02T10:28:17;99810.53;;;10.05;100.00
58757;BME280;44527;47.460;19.016;2024-03-02T10:31:51;99810.53;;;10.05;100.00
58757;BME280;44527;47.460;19.016;2024-03-02T10:35:12;99806.88;;;9.95;100.00
58757;BME280;44527;47.460;19.016;2024-03-02T10:38:37;99805.75;;;10.10;100.00
58757;BME280;44527;47.460;19.016;2024-03-02T10:42:20;99811.19;;;9.96;100.00
58757;BME280;44527;47.460;19.016;2024-03-02T10:45:42;99803.47;;;10.05;100.00
58757;BME280;44527;47.460;19.016;2024-03-02T10:49:07;99809.34;;;10.09;100.00
58757;BME280;44527;47.460;19.016;2024-03-02T10:52:36;99805.59;;;10.24;100.00
58757;BME280;44527;47.460;19.016;2024-03-02T10:56:08;99802.00;;;10.38;100.00
58757;BME280;44527;47.460;19.016;2024-03-02T10:59:49;99806.84;;;10.31;100.00
58757;BME280;44527;47.460;19.016;2024-03-02T11:03:51;99805.75;;;10.47;100.00
58757;BME280;44527;47.460;19.016;2024-03-02T11:07:30;99803.37;;;10.55;100.00
58757;BME280;44527;47.460;19.016;2024-03-02T11:10:54;99800.44;;;10.71;100.00
58757;BME280;44527;47.460;19.016;2024-03-02T11:14:46;99798.81;;;10.92;100.00
58757;BME280;44527;47.460;19.016;2024-03-02T11:18:05;99785.13;;;11.11;100.00
58757;BME280;44527;47.460;19.016;2024-03-02T11:21:52;99790.75;;;11.18;100.00
58757;BME280;44527;47.460;19.016;2024-03-02T11:25:02;99787.97;;;11.19;100.00
58757;BME280;44527;47.460;19.016;2024-03-02T11:28:42;99786.66;;;11.14;100.00
58757;BME280;44527;47.460;19.016;2024-03-02T11:32:20;99779.72;;;11.01;100.00
58757;BME280;44527;47.460;19.016;2024-03-02T11:35:35;99782.34;;;11.01;100.00
58757;BME280;44527;47.460;19.016;2024-03-02T11:39:04;99788.94;;;10.96;100.00
58757;BME280;44527;47.460;19.016;2024-03-02T11:42:32;99778.75;;;10.91;100.00
58757;BME280;44527;47.460;19.016;2024-03-02T11:45:48;99785.06;;;10.89;100.00
58757;BME280;44527;47.460;19.016;2024-03-02T11:49:14;99781.63;;;10.88;100.00
58757;BME280;44527;47.460;19.016;2024-03-02T11:52:33;99773.75;;;10.88;100.00
58757;BME280;44527;47.460;19.016;2024-03-02T11:55:56;99778.41;;;10.85;100.00
58757;BME280;44527;47.460;19.016;2024-03-02T11:59:11;99776.28;;;10.90;100.00
58757;BME280;44527;47.460;19.016;2024-03-02T12:02:30;99774.13;;;11.06;100.00
58757;BME280;44527;47.460;19.016;2024-03-02T12:05:50;99775.06;;;11.16;100.00
58757;BME280;44527;47.460;19.016;2024-03-02T12:09:10;99775.09;;;11.05;100.00
58757;BME280;44527;47.460;19.016;2024-03-02T12:12:31;99776.25;;;10.78;100.00
58757;BME280;44527;47.460;19.016;2024-03-02T12:15:42;99774.06;;;10.72;100.00
58757;BME280;44527;47.460;19.016;2024-03-02T12:19:04;99776.06;;;10.57;100.00
58757;BME280;44527;47.460;19.016;2024-03-02T12:22:15;99776.69;;;10.72;100.00
58757;BME280;44527;47.460;19.016;2024-03-02T12:25:37;99778.00;;;10.67;100.00
58757;BME280;44527;47.460;19.016;2024-03-02T12:28:53;99783.38;;;10.76;100.00
58757;BME280;44527;47.460;19.016;2024-03-02T12:32:31;99783.75;;;10.72;100.00
58757;BME280;44527;47.460;19.016;2024-03-02T12:36:00;99777.06;;;10.79;100.00
58757;BME280;44527;47.460;19.016;2024-03-02T12:39:12;99783.50;;;10.86;100.00
58757;BME280;44527;47.460;19.016;2024-03-02T12:42:19;99782.31;;;10.79;100.00
58757;BME280;44527;47.460;19.016;2024-03-02T12:45:31;99777.09;;;10.90;100.00
58757;BME280;44527;47.460;19.016;2024-03-02T12:48:40;99772.37;;;10.60;100.00
58757;BME280;44527;47.460;19.016;2024-03-02T12:51:58;99780.13;;;10.62;100.00
58757;BME280;44527;47.460;19.016;2024-03-02T12:55:21;99779.44;;;10.71;100.00
58757;BME280;44527;47.460;19.016;2024-03-02T12:58:46;99780.59;;;10.55;100.00
58757;BME280;44527;47.460;19.016;2024-03-02T13:02:03;99781.53;;;10.54;100.00
58757;BME280;44527;47.460;19.016;2024-03-02T13:05:11;99782.59;;;10.52;100.00
58757;BME280;44527;47.460;19.016;2024-03-02T13:08:18;99781.16;;;10.48;100.00
58757;BME280;44527;47.460;19.016;2024-03-02T13:11:29;99784.94;;;10.32;100.00
58757;BME280;44527;47.460;19.016;2024-03-02T13:14:33;99783.78;;;10.24;100.00
58757;BME280;44527;47.460;19.016;2024-03-02T13:17:44;99780.84;;;10.28;100.00
58757;BME280;44527;47.460;19.016;2024-03-02T13:20:57;99781.47;;;10.19;100.00
58757;BME280;44527;47.460;19.016;2024-03-02T13:24:07;99775.75;;;10.14;100.00
58757;BME280;44527;47.460;19.016;2024-03-02T13:27:12;99779.28;;;10.02;100.00
58757;BME280;44527;47.460;19.016;2024-03-02T13:30:23;99780.56;;;9.96;100.00
58757;BME280;44527;47.460;19.016;2024-03-02T13:33:29;99785.91;;;9.95;100.00
58757;BME280;44527;47.460;19.016;2024-03-02T13:36:38;99777.81;;;9.98;100.00
58757;BME280;44527;47.460;19.016;2024-03-02T13:39:43;99776.94;;;9.86;100.00
58757;BME280;44527;47.460;19.016;2024-03-02T13:42:53;99785.19;;;9.93;100.00
58757;BME280;44527;47.460;19.016;2024-03-02T13:45:58;99786.13;;;9.92;100.00
58757;BME280;44527;47.460;19.016;2024-03-02T13:49:02;99789.41;;;9.82;100.00
58757;BME280;44527;47.460;19.016;2024-03-02T13:52:06;99792.28;;;9.66;100.00
58757;BME280;44527;47.460;19.016;2024-03-02T13:55:22;99788.00;;;9.65;100.00
58757;BME280;44527;47.460;19.016;2024-03-02T13:58:27;99792.28;;;9.66;100.00
58757;BME280;44527;47.460;19.016;2024-03-02T14:01:42;99797.44;;;9.68;100.00
58757;BME280;44527;47.460;19.016;2024-03-02T14:04:51;99796.06;;;9.62;100.00
58757;BME280;44527;47.460;19.016;2024-03-02T14:07:56;99802.37;;;9.60;100.00
58757;BME280;44527;47.460;19.016;2024-03-02T14:11:02;99799.53;;;9.63;100.00
58757;BME280;44527;47.460;19.016;2024-03-02T14:14:09;99802.16;;;9.63;100.00
58757;BME280;44527;47.460;19.016;2024-03-02T14:17:14;99810.56;;;9.55;100.00
58757;BME280;44527;47.460;19.016;2024-03-02T14:20:23;99815.81;;;9.55;100.00
58757;BME280;44527;47.460;19.016;2024-03-02T14:23:28;99806.25;;;9.54;100.00
58757;BME280;44527;47.460;19.016;2024-03-02T14:26:37;99812.19;;;9.69;100.00
58757;BME280;44527;47.460;19.016;2024-03-02T14:29:46;99812.00;;;9.59;100.00
58757;BME280;44527;47.460;19.016;2024-03-02T14:32:50;99814.06;;;9.67;100.00
58757;BME280;44527;47.460;19.016;2024-03-02T14:36:02;99815.88;;;9.66;100.00
58757;BME280;44527;47.460;19.016;2024-03-02T14:39:08;99807.59;;;9.60;100.00
58757;BME280;44527;47.460;19.016;2024-03-02T14:42:15;99806.78;;;9.59;100.00
58757;BME280;44527;47.460;19.016;2024-03-02T14:45:35;99806.59;;;9.50;100.00
58757;BME280;44527;47.460;19.016;2024-03-02T14:48:41;99806.03;;;9.57;100.00
58757;BME280;44527;47.460;19.016;2024-03-02T14:51:46;99814.62;;;9.59;100.00
58757;BME280;44527;47.460;19.016;2024-03-02T14:54:59;99804.69;;;9.64;100.00
58757;BME280;44527;47.460;19.016;2024-03-02T14:58:05;99809.91;;;9.64;100.00
58757;BME280;44527;47.460;19.016;2024-03-02T15:01:16;99805.81;;;9.60;100.00
58757;BME280;44527;47.460;19.016;2024-03-02T15:04:22;99802.56;;;9.57;100.00
58757;BME280;44527;47.460;19.016;2024-03-02T15:07:26;99806.94;;;9.69;100.00
58757;BME280;44527;47.460;19.016;2024-03-02T15:10:35;99801.63;;;9.71;100.00
58757;BME280;44527;47.460;19.016;2024-03-02T15:13:52;99806.22;;;9.67;100.00
58757;BME280;44527;47.460;19.016;2024-03-02T15:17:01;99797.81;;;9.75;100.00
58757;BME280;44527;47.460;19.016;2024-03-02T15:20:08;99802.06;;;9.64;100.00
58757;BME280;44527;47.460;19.016;2024-03-02T15:23:12;99796.91;;;9.63;100.00
58757;BME280;44527;47.460;19.016;2024-03-02T15:26:17;99799.53;;;9.63;100.00
58757;BME280;44527;47.460;19.016;2024-03-02T15:29:24;99801.53;;;9.59;100.00
58757;BME280;44527;47.460;19.016;2024-03-02T15:32:33;99803.16;;;9.73;100.00
58757;BME280;44527;47.460;19.016;2024-03-02T15:35:37;99807.47;;;9.74;100.00
58757;BME280;44527;47.460;19.016;2024-03-02T15:38:50;99805.38;;;9.66;100.00
58757;BME280;44527;47.460;19.016;2024-03-02T15:42:10;99805.16;;;9.70;100.00
58757;BME280;44527;47.460;19.016;2024-03-02T15:45:19;99803.28;;;9.72;100.00
58757;BME280;44527;47.460;19.016;2024-03-02T15:48:29;99806.12;;;9.69;100.00
58757;BME280;44527;47.460;19.016;2024-03-02T15:51:36;99797.44;;;9.68;100.00
58757;BME280;44527;47.460;19.016;2024-03-02T15:54:48;99801.19;;;9.77;100.00
58757;BME280;44527;47.460;19.016;2024-03-02T15:58:03;99800.97;;;9.80;100.00
58757;BME280;44527;47.460;19.016;2024-03-02T16:01:09;99795.59;;;9.81;100.00
58757;BME280;44527;47.460;19.016;2024-03-02T16:04:13;99803.37;;;9.83;100.00
58757;BME280;44527;47.460;19.016;2024-03-02T16:07:18;99797.69;;;9.76;100.00
58757;BME280;44527;47.460;19.016;2024-03-02T16:10:28;99802.63;;;9.81;100.00
58757;BME280;44527;47.460;19.016;2024-03-02T16:13:32;99806.50;;;9.75;100.00
58757;BME280;44527;47.460;19.016;2024-03-02T16:16:35;99806.59;;;9.86;100.00
58757;BME280;44527;47.460;19.016;2024-03-02T16:19:44;99807.81;;;9.94;100.00
58757;BME280;44527;47.460;19.016;2024-03-02T16:22:48;99807.66;;;9.84;100.00
58757;BME280;44527;47.460;19.016;2024-03-02T16:25:51;99819.28;;;9.93;100.00
58757;BME280;44527;47.460;19.016;2024-03-02T16:28:55;99810.78;;;9.89;100.00
58757;BME280;44527;47.460;19.016;2024-03-02T16:32:00;99812.28;;;9.80;100.00